Terminal Aerodrome Forecast
Issued by NWS Sioux Falls, SD

Home | Current Version | Previous Version | Graphics & Text | Print | Product List | Glossary On
Versions: 1 2 3 4 5 6 7 8 9 10 11 12 13 14 15 16 17 18 19
030
FTUS43 KFSD 180128 AAA
TAFHON
TAF AMD
KHON 180128Z 1801/1824 19015G25KT 3SM TSRA SCT035CB BKN070
     FM180230 16012KT P6SM SCT100
     FM180900 12004KT P6SM BKN150
     FM181300 07009KT P6SM VCTS BKN100CB
     FM181800 06011KT P6SM BKN080=

USA.gov is the U.S. government's official web portal to all federal, state and local government web resources and services.